createdAt,value
2019-02-15T00:00:56.692Z,-0.67
2019-02-15T00:03:28.460Z,-0.74
2019-02-15T00:06:02.729Z,-0.78
2019-02-15T00:08:36.621Z,-0.80
2019-02-15T00:11:05.523Z,-0.71
2019-02-15T00:13:36.113Z,-0.62
2019-02-15T00:16:08.600Z,-0.66
2019-02-15T00:19:14.540Z,-0.64
2019-02-15T00:21:51.343Z,-0.51
2019-02-15T00:24:26.137Z,-0.39
2019-02-15T00:26:59.451Z,-0.44
2019-02-15T00:29:28.344Z,-0.40
2019-02-15T00:32:07.960Z,-0.39
2019-02-15T00:34:38.431Z,-0.44
2019-02-15T00:37:09.116Z,-0.51
2019-02-15T00:39:42.462Z,-0.40
2019-02-15T00:42:14.826Z,-0.48
2019-02-15T00:44:43.725Z,-0.56
2019-02-15T00:47:31.903Z,-0.53
2019-02-15T00:50:26.335Z,-0.59
2019-02-15T00:53:09.631Z,-0.56
2019-02-15T00:56:15.521Z,-0.65
2019-02-15T00:58:58.372Z,-0.63
2019-02-15T01:01:45.707Z,-0.71
2019-02-15T01:04:21.035Z,-0.78
2019-02-15T01:07:10.749Z,-0.78
2019-02-15T01:10:01.635Z,-0.80
2019-02-15T01:12:36.027Z,-0.85
2019-02-15T01:15:10.695Z,-0.86
2019-02-15T01:17:39.651Z,-0.96
2019-02-15T01:20:08.620Z,-1.03
2019-02-15T01:22:40.590Z,-1.05
2019-02-15T01:25:13.931Z,-1.02
2019-02-15T01:28:05.412Z,-1.05
2019-02-15T01:30:56.243Z,-1.14
2019-02-15T01:34:04.439Z,-1.20
2019-02-15T01:36:52.206Z,-1.25
2019-02-15T01:39:37.977Z,-1.31
2019-02-15T01:42:28.519Z,-1.25
2019-02-15T01:45:12.122Z,-1.19
2019-02-15T01:47:46.780Z,-1.19
2019-02-15T01:50:17.265Z,-1.18
2019-02-15T01:52:49.273Z,-1.15
2019-02-15T01:55:20.168Z,-1.19
2019-02-15T01:57:57.089Z,-1.18
2019-02-15T02:00:29.330Z,-1.15
2019-02-15T02:03:00.008Z,-1.12
2019-02-15T02:05:32.026Z,-1.15
2019-02-15T02:08:02.438Z,-1.08
2019-02-15T02:10:33.048Z,-1.10
2019-02-15T02:13:03.199Z,-1.22
2019-02-15T02:15:34.498Z,-1.30
2019-02-15T02:18:03.817Z,-1.24
2019-02-15T02:20:38.331Z,-1.25
2019-02-15T02:23:10.364Z,-1.32
2019-02-15T02:25:41.516Z,-1.39
2019-02-15T02:28:11.101Z,-1.45
2019-02-15T02:30:44.577Z,-1.39
2019-02-15T02:33:13.355Z,-1.46
2019-02-15T02:35:44.349Z,-1.46
2019-02-15T02:38:13.313Z,-1.51
2019-02-15T02:41:03.117Z,-1.57
2019-02-15T02:43:33.577Z,-1.53
2019-02-15T02:46:05.658Z,-1.55
2019-02-15T02:48:36.975Z,-1.46
2019-02-15T02:51:06.107Z,-1.43
2019-02-15T02:53:35.035Z,-1.41
2019-02-15T02:56:08.819Z,-1.41
2019-02-15T02:58:40.580Z,-1.45
2019-02-15T03:01:11.617Z,-1.52
2019-02-15T03:03:44.568Z,-1.60
2019-02-15T03:06:16.562Z,-1.64
2019-02-15T03:08:50.187Z,-1.68
2019-02-15T03:11:22.318Z,-1.63
2019-02-15T03:13:54.391Z,-1.59
2019-02-15T03:16:26.450Z,-1.64
2019-02-15T03:18:55.349Z,-1.62
2019-02-15T03:21:25.803Z,-1.58
2019-02-15T03:23:56.518Z,-1.54
2019-02-15T03:26:30.651Z,-1.56
2019-02-15T03:28:59.893Z,-1.52
2019-02-15T03:31:29.815Z,-1.50
2019-02-15T03:34:03.371Z,-1.46
2019-02-15T03:36:48.313Z,-1.47
2019-02-15T03:39:32.626Z,-1.43
2019-02-15T03:42:06.874Z,-1.37
2019-02-15T03:44:43.838Z,-1.42
2019-02-15T03:47:21.458Z,-1.44
2019-02-15T03:49:58.620Z,-1.40
2019-02-15T03:52:29.720Z,-1.28
2019-02-15T03:55:00.398Z,-1.44
2019-02-15T03:57:30.697Z,-1.53
2019-02-15T04:00:02.963Z,-1.52
2019-02-15T04:02:38.203Z,-1.63
2019-02-15T04:05:11.885Z,-1.68
2019-02-15T04:07:42.415Z,-1.75
2019-02-15T04:10:14.533Z,-1.58
2019-02-15T04:12:44.857Z,-1.60
2019-02-15T04:15:13.937Z,-1.54
2019-02-15T04:17:48.289Z,-1.48
2019-02-15T04:20:20.395Z,-1.50
2019-02-15T04:22:51.044Z,-1.44
2019-02-15T04:25:20.007Z,-1.41
2019-02-15T04:27:59.435Z,-1.44
2019-02-15T04:30:39.186Z,-1.51
2019-02-15T04:33:22.969Z,-1.55
2019-02-15T04:35:58.295Z,-1.51
2019-02-15T04:38:54.923Z,-1.37
2019-02-15T04:41:33.563Z,-1.30
2019-02-15T04:44:17.731Z,-1.41
2019-02-15T04:46:58.335Z,-1.55
2019-02-15T04:49:31.837Z,-1.62
2019-02-15T04:52:02.540Z,-1.68
2019-02-15T04:54:31.111Z,-1.72
2019-02-15T04:57:01.908Z,-1.69
2019-02-15T04:59:33.832Z,-1.81
2019-02-15T05:02:03.891Z,-1.75
2019-02-15T05:04:39.189Z,-1.57
2019-02-15T05:07:10.540Z,-1.46
2019-02-15T05:09:41.963Z,-1.54
2019-02-15T05:12:17.310Z,-1.66
2019-02-15T05:14:53.150Z,-1.71
2019-02-15T05:17:22.023Z,-1.80
2019-02-15T05:19:52.927Z,-1.81
2019-02-15T05:22:25.210Z,-1.69
2019-02-15T05:24:55.854Z,-1.57
2019-02-15T05:27:26.377Z,-1.52
2019-02-15T05:29:59.889Z,-1.48
2019-02-15T05:32:32.270Z,-1.50
2019-02-15T05:35:03.240Z,-1.65
2019-02-15T05:37:32.603Z,-1.67
2019-02-15T05:40:05.480Z,-1.65
2019-02-15T05:42:37.492Z,-1.63
2019-02-15T05:45:07.897Z,-1.63
2019-02-15T05:47:38.379Z,-1.63
2019-02-15T05:50:11.730Z,-1.67
2019-02-15T05:52:40.831Z,-1.68
2019-02-15T05:55:16.504Z,-1.47
2019-02-15T05:57:47.356Z,-1.40
2019-02-15T06:00:19.644Z,-1.44
2019-02-15T06:02:52.258Z,-1.33
2019-02-15T06:05:23.298Z,-1.41
2019-02-15T06:07:54.170Z,-1.37
2019-02-15T06:10:24.530Z,-1.43
2019-02-15T06:12:56.906Z,-1.49
2019-02-15T06:15:28.238Z,-1.44
2019-02-15T06:17:58.941Z,-1.53
2019-02-15T06:20:32.789Z,-1.52
2019-02-15T06:23:01.690Z,-1.46
2019-02-15T06:25:32.461Z,-1.42
2019-02-15T06:28:06.115Z,-1.45
2019-02-15T06:30:39.314Z,-1.49
2019-02-15T06:33:09.745Z,-1.52
2019-02-15T06:35:45.878Z,-1.55
2019-02-15T06:38:17.695Z,-1.60
2019-02-15T06:40:48.562Z,-1.68
2019-02-15T06:43:20.948Z,-1.79
2019-02-15T06:45:52.573Z,-1.77
2019-02-15T06:48:22.881Z,-1.80
2019-02-15T06:50:54.851Z,-1.82
2019-02-15T06:53:30.021Z,-1.83
2019-02-15T06:55:58.610Z,-1.79
2019-02-15T06:58:27.619Z,-1.87
2019-02-15T07:01:23.279Z,-1.90
2019-02-15T07:04:07.308Z,-1.84
2019-02-15T07:06:40.199Z,-1.79
2019-02-15T07:09:15.267Z,-1.67
2019-02-15T07:11:46.220Z,-1.59
2019-02-15T07:14:15.478Z,-1.37
2019-02-15T07:16:49.927Z,-1.29
2019-02-15T07:19:25.727Z,-1.21
2019-02-15T07:21:58.751Z,-1.17
2019-02-15T07:24:34.229Z,-1.10
2019-02-15T07:27:07.471Z,-1.10
2019-02-15T07:29:41.687Z,-0.74
2019-02-15T07:32:15.446Z,-0.35
2019-02-15T07:34:47.441Z,-0.04
2019-02-15T07:37:22.790Z,0.24
2019-02-15T07:39:52.868Z,0.48
2019-02-15T07:42:21.704Z,0.64
2019-02-15T07:44:56.725Z,0.70
2019-02-15T07:47:26.964Z,0.79
2019-02-15T07:50:02.194Z,1.01
2019-02-15T07:52:32.436Z,0.96
2019-02-15T07:55:01.526Z,0.91
2019-02-15T07:57:35.424Z,1.01
2019-02-15T08:00:04.926Z,1.10
2019-02-15T08:02:33.832Z,1.13
2019-02-15T08:05:07.133Z,1.19
2019-02-15T08:07:41.569Z,1.24
2019-02-15T08:10:13.604Z,1.22
2019-02-15T08:12:42.813Z,1.38
2019-02-15T08:15:11.577Z,1.40
2019-02-15T08:17:42.049Z,1.37
2019-02-15T08:20:15.096Z,1.41
2019-02-15T08:22:48.647Z,1.49
2019-02-15T08:25:20.778Z,1.54
2019-02-15T08:27:50.915Z,1.67
2019-02-15T08:30:22.927Z,1.77
2019-02-15T08:32:51.984Z,1.88
2019-02-15T08:35:24.320Z,1.98
2019-02-15T08:37:56.866Z,2.02
2019-02-15T08:40:28.664Z,2.06
2019-02-15T08:42:57.959Z,2.18
2019-02-15T08:45:27.040Z,2.31
2019-02-15T08:47:59.836Z,2.47
2019-02-15T08:50:30.087Z,2.66
2019-02-15T08:53:05.338Z,2.66
2019-02-15T08:55:35.272Z,2.81
2019-02-15T08:58:04.251Z,2.95
2019-02-15T09:00:37.810Z,3.02
2019-02-15T09:03:10.124Z,3.04
2019-02-15T09:05:46.231Z,3.12
2019-02-15T09:08:14.829Z,3.24
2019-02-15T09:10:43.572Z,3.36
2019-02-15T09:13:12.454Z,3.44
2019-02-15T09:15:44.991Z,3.50
2019-02-15T09:18:18.099Z,3.54
2019-02-15T09:20:50.144Z,3.63
2019-02-15T09:23:20.813Z,3.67
2019-02-15T09:25:52.786Z,3.84
2019-02-15T09:28:29.277Z,4.04
2019-02-15T09:30:59.144Z,4.17
2019-02-15T09:33:29.905Z,4.23
2019-02-15T09:35:58.466Z,4.28
2019-02-15T09:38:30.735Z,4.36
2019-02-15T09:41:01.374Z,4.54
2019-02-15T09:43:30.371Z,4.61
2019-02-15T09:46:19.500Z,4.67
2019-02-15T09:48:43.064Z,4.85
2019-02-15T09:51:12.284Z,5.02
2019-02-15T09:53:46.200Z,5.08
2019-02-15T09:56:20.925Z,5.21
2019-02-15T09:58:51.312Z,5.31
2019-02-15T10:01:26.166Z,5.41
2019-02-15T10:03:57.018Z,5.56
2019-02-15T10:06:28.765Z,5.65
2019-02-15T10:09:01.689Z,5.66
2019-02-15T10:11:30.415Z,5.74
2019-02-15T10:13:59.334Z,5.83
2019-02-15T10:16:32.833Z,6.03
2019-02-15T10:19:06.200Z,6.17
2019-02-15T10:21:36.482Z,6.25
2019-02-15T10:24:05.583Z,6.37
2019-02-15T10:26:34.122Z,6.47
2019-02-15T10:29:06.527Z,6.58
2019-02-15T10:31:38.207Z,6.70
2019-02-15T10:34:09.234Z,6.84
2019-02-15T10:36:40.204Z,6.98
2019-02-15T10:39:12.429Z,7.05
2019-02-15T10:41:41.610Z,7.21
2019-02-15T10:44:14.297Z,7.41
2019-02-15T10:46:44.672Z,7.56
2019-02-15T10:49:19.014Z,7.63
2019-02-15T10:51:47.565Z,7.73
2019-02-15T10:54:19.755Z,7.87
2019-02-15T10:56:48.294Z,8.12
2019-02-15T10:59:19.419Z,8.38
2019-02-15T11:01:48.124Z,8.45
2019-02-15T11:04:19.941Z,8.54
2019-02-15T11:06:55.675Z,8.65
2019-02-15T11:09:26.131Z,8.93
2019-02-15T11:11:59.330Z,9.27
2019-02-15T11:14:27.894Z,9.38
2019-02-15T11:16:57.012Z,9.44
2019-02-15T11:19:29.900Z,9.44
2019-02-15T11:21:59.962Z,9.69
2019-02-15T11:24:28.921Z,9.71
2019-02-15T11:26:58.019Z,9.82
2019-02-15T11:29:32.660Z,9.85
2019-02-15T11:32:04.808Z,9.70
2019-02-15T11:34:37.108Z,9.97
2019-02-15T11:37:08.915Z,10.24
2019-02-15T11:39:42.319Z,10.50
2019-02-15T11:42:13.390Z,10.75
2019-02-15T11:44:43.320Z,10.90
2019-02-15T11:47:11.865Z,11.03
2019-02-15T11:49:47.181Z,11.12
2019-02-15T11:52:15.732Z,11.28
2019-02-15T11:54:47.788Z,11.29
2019-02-15T11:57:21.249Z,11.33
2019-02-15T11:59:53.332Z,11.40
2019-02-15T12:02:27.171Z,11.54
2019-02-15T12:04:57.623Z,11.61
2019-02-15T12:07:26.476Z,11.73
2019-02-15T12:10:00.764Z,11.77
2019-02-15T12:12:32.853Z,11.89
2019-02-15T12:15:07.873Z,11.91
2019-02-15T12:17:39.767Z,11.95
2019-02-15T12:20:12.262Z,12.00
2019-02-15T12:22:46.195Z,12.07
2019-02-15T12:25:20.199Z,12.02
2019-02-15T12:27:52.122Z,12.07
2019-02-15T12:30:40.189Z,12.06
2019-02-15T12:33:10.580Z,12.12
2019-02-15T12:35:39.305Z,12.15
2019-02-15T12:38:12.948Z,12.22
2019-02-15T12:40:42.664Z,12.30
2019-02-15T12:43:11.591Z,12.33
2019-02-15T12:45:49.674Z,12.32
2019-02-15T12:48:20.491Z,12.38
2019-02-15T12:50:52.484Z,12.37
2019-02-15T12:53:25.147Z,12.49
2019-02-15T12:55:57.840Z,12.52
2019-02-15T12:58:29.968Z,12.62
2019-02-15T13:01:02.090Z,12.69
2019-02-15T13:03:30.994Z,12.69
2019-02-15T13:06:00.289Z,12.79
2019-02-15T13:08:33.298Z,12.79
2019-02-15T13:11:03.449Z,12.79
2019-02-15T13:13:37.076Z,12.85
2019-02-15T13:16:11.721Z,12.87
2019-02-15T13:18:43.834Z,12.87
2019-02-15T13:21:16.711Z,12.96
2019-02-15T13:23:47.712Z,12.99
2019-02-15T13:26:24.855Z,13.00
2019-02-15T13:28:57.008Z,13.04
2019-02-15T13:31:26.350Z,13.05
2019-02-15T13:33:57.261Z,13.10
2019-02-15T13:36:27.958Z,13.10
2019-02-15T13:39:00.417Z,13.17
2019-02-15T13:41:33.015Z,13.17
2019-02-15T13:44:04.789Z,13.17
2019-02-15T13:46:35.595Z,13.27
2019-02-15T13:49:06.421Z,13.37
2019-02-15T13:51:38.815Z,13.40
2019-02-15T13:54:14.012Z,13.38
2019-02-15T13:56:47.653Z,13.34
2019-02-15T13:59:19.585Z,13.37
2019-02-15T14:01:53.359Z,13.53
2019-02-15T14:04:22.909Z,13.51
2019-02-15T14:06:58.849Z,13.25
2019-02-15T14:09:29.613Z,13.48
2019-02-15T14:11:58.826Z,13.40
2019-02-15T14:14:29.623Z,13.39
2019-02-15T14:16:58.777Z,13.35
2019-02-15T14:19:33.735Z,13.47
2019-02-15T14:22:04.220Z,13.55
2019-02-15T14:24:39.136Z,13.70
2019-02-15T14:27:08.284Z,13.67
2019-02-15T14:29:40.718Z,13.62
2019-02-15T14:32:14.831Z,13.60
2019-02-15T14:34:48.713Z,13.62
2019-02-15T14:37:19.446Z,13.61
2019-02-15T14:39:53.332Z,13.59
2019-02-15T14:42:28.687Z,13.61
2019-02-15T14:45:08.875Z,13.53
2019-02-15T14:47:40.005Z,13.53
2019-02-15T14:50:15.773Z,13.56
2019-02-15T14:52:49.060Z,13.56
2019-02-15T14:55:21.940Z,13.54
2019-02-15T14:57:54.240Z,13.53
2019-02-15T15:00:29.794Z,13.46
2019-02-15T15:03:04.420Z,13.38
2019-02-15T15:05:41.986Z,13.41
2019-02-15T15:08:15.235Z,13.42
2019-02-15T15:10:44.539Z,13.45
2019-02-15T15:13:41.654Z,13.40
2019-02-15T15:16:14.354Z,13.35
2019-02-15T15:18:45.022Z,13.33
2019-02-15T15:21:27.908Z,13.28
2019-02-15T15:23:58.863Z,13.18
2019-02-15T15:26:33.347Z,13.10
2019-02-15T15:29:05.609Z,12.99
2019-02-15T15:31:34.899Z,12.90
2019-02-15T15:34:04.586Z,12.79
2019-02-15T15:36:34.968Z,12.67
2019-02-15T15:39:07.057Z,12.54
2019-02-15T15:41:36.295Z,12.46
2019-02-15T15:44:07.091Z,12.38
2019-02-15T15:46:40.787Z,12.28
2019-02-15T15:49:12.096Z,12.21
2019-02-15T15:51:43.090Z,12.10
2019-02-15T15:54:17.740Z,12.05
2019-02-15T15:56:50.789Z,11.94
2019-02-15T15:59:20.257Z,11.81
2019-02-15T16:01:50.835Z,11.70
2019-02-15T16:04:19.381Z,11.47
2019-02-15T16:06:52.717Z,11.28
2019-02-15T16:09:21.437Z,11.06
2019-02-15T16:11:50.659Z,10.90
2019-02-15T16:14:23.927Z,10.72
2019-02-15T16:16:57.847Z,10.43
2019-02-15T16:19:28.179Z,10.16
2019-02-15T16:21:58.734Z,9.88
2019-02-15T16:24:31.073Z,9.71
2019-02-15T16:26:59.648Z,9.57
2019-02-15T16:29:28.473Z,9.44
2019-02-15T16:32:00.038Z,9.22
2019-02-15T16:34:31.233Z,8.97
2019-02-15T16:37:03.012Z,8.76
2019-02-15T16:39:33.400Z,8.60
2019-02-15T16:42:04.546Z,8.46
2019-02-15T16:44:36.344Z,8.25
2019-02-15T16:47:05.431Z,8.06
2019-02-15T16:49:39.735Z,8.01
2019-02-15T16:52:12.044Z,7.72
2019-02-15T16:54:43.882Z,7.72
2019-02-15T16:57:16.177Z,7.46
2019-02-15T16:59:46.299Z,7.46
2019-02-15T17:02:18.139Z,7.43
2019-02-15T17:04:46.994Z,7.24
2019-02-15T17:07:15.911Z,7.02
2019-02-15T17:09:44.806Z,7.00
2019-02-15T17:12:18.925Z,6.97
2019-02-15T17:14:50.007Z,6.93
2019-02-15T17:17:24.344Z,6.81
2019-02-15T17:19:54.474Z,6.73
2019-02-15T17:22:25.421Z,6.65
2019-02-15T17:24:54.380Z,6.53
2019-02-15T17:27:26.230Z,6.43
2019-02-15T17:29:58.176Z,6.36
2019-02-15T17:32:28.989Z,6.37
2019-02-15T17:35:02.295Z,6.32
2019-02-15T17:37:34.493Z,6.27
2019-02-15T17:40:05.678Z,6.13
2019-02-15T17:42:36.310Z,6.07
2019-02-15T17:45:09.220Z,6.06
2019-02-15T17:47:39.730Z,5.93
2019-02-15T17:50:12.216Z,5.74
2019-02-15T17:52:42.754Z,5.60
2019-02-15T17:55:11.927Z,5.55
2019-02-15T17:57:42.785Z,5.58
2019-02-15T18:00:11.732Z,5.44
2019-02-15T18:02:43.786Z,5.53
2019-02-15T18:05:17.494Z,5.53
2019-02-15T18:07:48.815Z,5.41
2019-02-15T18:10:19.384Z,5.34
2019-02-15T18:12:52.890Z,5.25
2019-02-15T18:15:23.358Z,5.13
2019-02-15T18:17:55.990Z,5.05
2019-02-15T18:20:32.131Z,5.03
2019-02-15T18:23:02.073Z,5.16
2019-02-15T18:25:37.339Z,5.17
2019-02-15T18:28:09.309Z,5.27
2019-02-15T18:30:47.322Z,5.49
2019-02-15T18:33:19.824Z,5.57
2019-02-15T18:35:52.030Z,5.30
2019-02-15T18:38:21.172Z,5.10
2019-02-15T18:40:51.589Z,4.94
2019-02-15T18:43:20.186Z,4.82
2019-02-15T18:45:48.918Z,4.76
2019-02-15T18:48:40.313Z,4.62
2019-02-15T18:51:09.116Z,4.53
2019-02-15T18:53:42.790Z,4.44
2019-02-15T18:56:11.041Z,4.34
2019-02-15T18:58:44.211Z,4.23
2019-02-15T19:01:23.159Z,4.28
2019-02-15T19:03:55.093Z,4.14
2019-02-15T19:06:27.915Z,4.19
2019-02-15T19:08:57.040Z,4.10
2019-02-15T19:11:26.069Z,3.96
2019-02-15T19:14:02.716Z,3.88
2019-02-15T19:16:35.240Z,3.82
2019-02-15T19:19:09.173Z,3.78
2019-02-15T19:21:37.957Z,3.56
2019-02-15T19:24:06.558Z,3.40
2019-02-15T19:26:39.944Z,3.27
2019-02-15T19:29:10.895Z,3.28
2019-02-15T19:31:46.136Z,3.29
2019-02-15T19:34:15.375Z,3.17
2019-02-15T19:36:48.619Z,3.06
2019-02-15T19:39:22.751Z,2.98
2019-02-15T19:41:55.113Z,2.98
2019-02-15T19:44:26.794Z,2.88
2019-02-15T19:46:59.952Z,2.90
2019-02-15T19:49:38.235Z,2.87
2019-02-15T19:52:04.835Z,2.81
2019-02-15T19:54:35.772Z,2.68
2019-02-15T19:57:09.391Z,2.55
2019-02-15T19:59:53.361Z,2.56
2019-02-15T20:02:15.542Z,2.47
2019-02-15T20:04:44.658Z,2.43
2019-02-15T20:07:14.614Z,2.42
2019-02-15T20:09:43.379Z,2.45
2019-02-15T20:12:15.868Z,2.44
2019-02-15T20:14:47.242Z,2.34
2019-02-15T20:17:18.223Z,2.37
2019-02-15T20:19:51.063Z,2.44
2019-02-15T20:22:21.634Z,2.45
2019-02-15T20:25:01.566Z,2.37
2019-02-15T20:27:38.255Z,2.34
2019-02-15T20:30:17.329Z,2.35
2019-02-15T20:32:51.434Z,2.30
2019-02-15T20:35:21.882Z,2.20
2019-02-15T20:37:50.810Z,2.16
2019-02-15T20:40:20.882Z,2.08
2019-02-15T20:42:52.687Z,2.03
2019-02-15T20:45:22.030Z,1.99
2019-02-15T20:47:52.530Z,2.01
2019-02-15T20:50:22.821Z,1.93
2019-02-15T20:52:58.151Z,1.96
2019-02-15T20:55:32.645Z,1.90
2019-02-15T20:58:04.572Z,1.95
2019-02-15T21:00:38.282Z,2.00
2019-02-15T21:03:14.364Z,1.98
2019-02-15T21:05:45.602Z,1.92
2019-02-15T21:08:17.661Z,1.89
2019-02-15T21:10:55.088Z,1.87
2019-02-15T21:13:28.743Z,1.78
2019-02-15T21:15:58.871Z,1.82
2019-02-15T21:18:28.936Z,1.80
2019-02-15T21:20:59.696Z,1.79
2019-02-15T21:23:48.456Z,1.76
2019-02-15T21:26:18.808Z,1.75
2019-02-15T21:28:50.477Z,1.67
2019-02-15T21:31:21.591Z,1.59
2019-02-15T21:33:53.896Z,1.62
2019-02-15T21:36:26.468Z,1.62
2019-02-15T21:38:55.365Z,1.51
2019-02-15T21:41:33.980Z,1.49
2019-02-15T21:44:06.046Z,1.61
2019-02-15T21:46:34.991Z,1.57
2019-02-15T21:49:05.697Z,1.62
2019-02-15T21:51:35.109Z,1.63
2019-02-15T21:54:07.637Z,1.63
2019-02-15T21:56:43.187Z,1.55
2019-02-15T21:59:15.591Z,1.51
2019-02-15T22:01:52.601Z,1.39
2019-02-15T22:04:23.874Z,1.32
2019-02-15T22:06:56.271Z,1.34
2019-02-15T22:09:31.328Z,1.28
2019-02-15T22:12:03.527Z,1.21
2019-02-15T22:14:37.688Z,1.30
2019-02-15T22:17:09.909Z,1.38
2019-02-15T22:19:40.141Z,1.48
2019-02-15T22:22:11.953Z,1.49
2019-02-15T22:24:40.907Z,1.47
2019-02-15T22:27:15.058Z,1.48
2019-02-15T22:29:45.705Z,1.53
2019-02-15T22:32:14.758Z,1.74
2019-02-15T22:34:46.515Z,1.69
2019-02-15T22:37:22.063Z,1.61
2019-02-15T22:39:55.265Z,1.61
2019-02-15T22:42:24.482Z,1.44
2019-02-15T22:44:53.951Z,1.35
2019-02-15T22:47:24.379Z,1.36
2019-02-15T22:49:55.188Z,1.41
2019-02-15T22:52:26.212Z,1.41
2019-02-15T22:54:58.257Z,1.40
2019-02-15T22:57:28.962Z,1.52
2019-02-15T23:00:12.640Z,1.51
2019-02-15T23:02:36.186Z,1.44
2019-02-15T23:05:04.782Z,1.32
2019-02-15T23:07:38.588Z,1.26
2019-02-15T23:10:11.544Z,1.45
2019-02-15T23:12:40.659Z,1.54
2019-02-15T23:15:09.221Z,1.59
2019-02-15T23:17:38.156Z,1.57
2019-02-15T23:20:11.749Z,1.75
2019-02-15T23:22:45.200Z,1.91
2019-02-15T23:25:16.099Z,1.90
2019-02-15T23:27:46.740Z,1.78
2019-02-15T23:30:15.681Z,1.56
2019-02-15T23:32:44.796Z,1.41
2019-02-15T23:35:13.339Z,1.26
2019-02-15T23:37:46.369Z,1.32
2019-02-15T23:40:15.254Z,1.34
2019-02-15T23:42:44.208Z,1.27
2019-02-15T23:45:17.705Z,1.24
2019-02-15T23:47:45.520Z,1.40
2019-02-15T23:50:16.347Z,1.46
2019-02-15T23:52:45.597Z,1.37
2019-02-15T23:55:18.344Z,1.31
2019-02-15T23:57:50.200Z,1.26
